Flight Number: EUR3071 Duration: 12:00
Departure: Rio de Janeiro (SBGL) at 18:30 Distance: 4985 Nm
Arrival: Gatwick Airport (EGKK) at 06:30 Equipment: A340

Weather Information
Galeao, Brazil (SBGL) 22-49S 043-15W 42M Aug 19, 2018 - 05:00 AM EDT / 2018.08.19 0900 UTC
Wind: from the NE (050 degrees) at 2 MPH (2 KT):0
Visibility: greater than 7 mile(s):0 Temperature: 62 F (17 C) Dew Point: 59 F (15 C) Relative Humidity: 88% Pressure (altimeter): 30.21 in. Hg (1023 hPa)
ob: SBGL 190900Z 05002KT CAVOK 17/15 Q1023 cycle: 9
Sunrise: 09:16 Sunset: 20:36 (UTC)

London / Gatwick Airport, United Kingdom (EGKK) 51-09N 000-11W 0M Aug 19, 2018 - 04:50 AM EDT / 2018.08.19 0850 UTC
Wind: from the SW (220 degrees) at 13 MPH (11 KT) (direction variable):0
Visibility: greater than 7 mile(s):0
Sky conditions: mostly cloudy Temperature: 64 F (18 C) Dew Point: 59 F (15 C) Relative Humidity: 82% Pressure (altimeter): 30.09 in. Hg (1019 hPa)
ob: EGKK 190850Z 22011KT 180V250 9999 BKN013 18/15 Q1019 cycle: 9
Sunrise: 04:58 Sunset: 19:10 (UTC)

TAF:2018/08/19 06:20 TAF EGKK 190458Z 1906/2012 22008KT 9999 BKN020 TEMPO 1906/1915 BKN010 PROB30 TEMPO 1906/1914 7000 -DZ BKN007 PROB30 TEMPO 1911/1915 22015G25KT PROB30 TEMPO 2002/2008 5000 HZ BKN006

Previous Pireps for this route
Date Aircraft Flight time Fuel used Landing rate On time
2015-06-23B74710.31283502-12Charter
2015-06-26B74711.46301897-93Charter
(pireps marked green are flown by you)

Route map